sensor_id;sensor_type;location;lat;lon;timestamp;P1;durP1;ratioP1;P2;durP2;ratioP2
41249;SDS011;26984;59.928;30.306;2022-08-20T00:00:43;11.18;;;10.18;;
41249;SDS011;26984;59.928;30.306;2022-08-20T00:03:15;11.48;;;10.27;;
41249;SDS011;26984;59.928;30.306;2022-08-20T00:05:46;10.30;;;9.45;;
41249;SDS011;26984;59.928;30.306;2022-08-20T00:08:17;10.45;;;9.43;;
41249;SDS011;26984;59.928;30.306;2022-08-20T00:10:47;14.15;;;10.10;;
41249;SDS011;26984;59.928;30.306;2022-08-20T00:13:18;12.27;;;9.13;;
41249;SDS011;26984;59.928;30.306;2022-08-20T00:15:51;12.35;;;9.38;;
41249;SDS011;26984;59.928;30.306;2022-08-20T00:18:20;10.52;;;9.32;;
41249;SDS011;26984;59.928;30.306;2022-08-20T00:20:49;12.40;;;8.95;;
41249;SDS011;26984;59.928;30.306;2022-08-20T00:23:18;10.95;;;9.95;;
41249;SDS011;26984;59.928;30.306;2022-08-20T00:25:47;10.70;;;9.70;;
41249;SDS011;26984;59.928;30.306;2022-08-20T00:28:15;11.18;;;9.18;;
41249;SDS011;26984;59.928;30.306;2022-08-20T00:30:43;10.60;;;9.60;;
41249;SDS011;26984;59.928;30.306;2022-08-20T00:33:15;10.75;;;9.65;;
41249;SDS011;26984;59.928;30.306;2022-08-20T00:35:45;10.00;;;9.13;;
41249;SDS011;26984;59.928;30.306;2022-08-20T00:38:16;10.40;;;9.40;;
41249;SDS011;26984;59.928;30.306;2022-08-20T00:40:47;17.60;;;9.55;;
41249;SDS011;26984;59.928;30.306;2022-08-20T00:43:25;9.95;;;8.70;;
41249;SDS011;26984;59.928;30.306;2022-08-20T00:45:55;11.02;;;9.00;;
41249;SDS011;26984;59.928;30.306;2022-08-20T00:48:28;9.68;;;8.70;;
41249;SDS011;26984;59.928;30.306;2022-08-20T00:51:01;9.82;;;8.88;;
41249;SDS011;26984;59.928;30.306;2022-08-20T00:53:32;11.93;;;9.88;;
41249;SDS011;26984;59.928;30.306;2022-08-20T00:56:04;10.68;;;9.73;;
41249;SDS011;26984;59.928;30.306;2022-08-20T00:58:33;10.93;;;9.27;;
41249;SDS011;26984;59.928;30.306;2022-08-20T01:01:05;12.27;;;11.10;;
41249;SDS011;26984;59.928;30.306;2022-08-20T01:03:36;12.50;;;11.30;;
41249;SDS011;26984;59.928;30.306;2022-08-20T01:06:04;13.18;;;12.07;;
41249;SDS011;26984;59.928;30.306;2022-08-20T01:08:37;14.18;;;12.57;;
41249;SDS011;26984;59.928;30.306;2022-08-20T01:11:06;12.93;;;11.48;;
41249;SDS011;26984;59.928;30.306;2022-08-20T01:13:38;13.63;;;10.68;;
41249;SDS011;26984;59.928;30.306;2022-08-20T01:16:10;10.15;;;9.18;;
41249;SDS011;26984;59.928;30.306;2022-08-20T01:18:48;11.17;;;10.07;;
41249;SDS011;26984;59.928;30.306;2022-08-20T01:21:18;13.60;;;9.15;;
41249;SDS011;26984;59.928;30.306;2022-08-20T01:23:53;13.20;;;8.48;;
41249;SDS011;26984;59.928;30.306;2022-08-20T01:26:28;12.45;;;8.90;;
41249;SDS011;26984;59.928;30.306;2022-08-20T01:28:59;10.32;;;8.13;;
41249;SDS011;26984;59.928;30.306;2022-08-20T01:31:31;9.70;;;8.02;;
41249;SDS011;26984;59.928;30.306;2022-08-20T01:34:01;10.05;;;8.13;;
41249;SDS011;26984;59.928;30.306;2022-08-20T01:36:34;9.38;;;8.55;;
41249;SDS011;26984;59.928;30.306;2022-08-20T01:39:05;11.07;;;9.68;;
41249;SDS011;26984;59.928;30.306;2022-08-20T01:41:46;12.00;;;10.80;;
41249;SDS011;26984;59.928;30.306;2022-08-20T01:44:23;14.00;;;10.73;;
41249;SDS011;26984;59.928;30.306;2022-08-20T01:46:52;13.43;;;11.73;;
41249;SDS011;26984;59.928;30.306;2022-08-20T01:49:26;15.55;;;11.73;;
41249;SDS011;26984;59.928;30.306;2022-08-20T01:51:57;13.43;;;12.13;;
41249;SDS011;26984;59.928;30.306;2022-08-20T01:54:27;12.85;;;11.52;;
41249;SDS011;26984;59.928;30.306;2022-08-20T01:57:01;15.18;;;13.13;;
41249;SDS011;26984;59.928;30.306;2022-08-20T01:59:32;14.70;;;13.43;;
41249;SDS011;26984;59.928;30.306;2022-08-20T02:04:27;15.07;;;13.63;;
41249;SDS011;26984;59.928;30.306;2022-08-20T02:06:57;16.60;;;15.00;;
41249;SDS011;26984;59.928;30.306;2022-08-20T02:09:26;19.38;;;15.55;;
41249;SDS011;26984;59.928;30.306;2022-08-20T02:11:56;19.92;;;15.30;;
41249;SDS011;26984;59.928;30.306;2022-08-20T02:14:28;18.48;;;14.57;;
41249;SDS011;26984;59.928;30.306;2022-08-20T02:16:57;17.98;;;16.27;;
41249;SDS011;26984;59.928;30.306;2022-08-20T02:19:27;15.20;;;13.63;;
41249;SDS011;26984;59.928;30.306;2022-08-20T02:21:59;17.90;;;14.43;;
41249;SDS011;26984;59.928;30.306;2022-08-20T02:24:31;15.23;;;13.65;;
41249;SDS011;26984;59.928;30.306;2022-08-20T02:27:04;17.27;;;11.68;;
41249;SDS011;26984;59.928;30.306;2022-08-20T02:29:32;16.10;;;12.52;;
41249;SDS011;26984;59.928;30.306;2022-08-20T02:31:59;16.15;;;12.77;;
41249;SDS011;26984;59.928;30.306;2022-08-20T02:36:55;19.45;;;13.13;;
41249;SDS011;26984;59.928;30.306;2022-08-20T02:39:27;14.88;;;13.30;;
41249;SDS011;26984;59.928;30.306;2022-08-20T02:41:55;18.13;;;11.85;;
41249;SDS011;26984;59.928;30.306;2022-08-20T02:44:24;14.32;;;12.68;;
41249;SDS011;26984;59.928;30.306;2022-08-20T02:46:53;16.88;;;12.98;;
41249;SDS011;26984;59.928;30.306;2022-08-20T02:49:22;13.55;;;12.25;;
41249;SDS011;26984;59.928;30.306;2022-08-20T02:51:50;15.52;;;11.75;;
41249;SDS011;26984;59.928;30.306;2022-08-20T02:56:45;15.98;;;12.80;;
41249;SDS011;26984;59.928;30.306;2022-08-20T02:59:13;17.05;;;13.73;;
41249;SDS011;26984;59.928;30.306;2022-08-20T03:01:43;19.63;;;12.73;;
41249;SDS011;26984;59.928;30.306;2022-08-20T03:04:10;13.98;;;11.63;;
41249;SDS011;26984;59.928;30.306;2022-08-20T03:09:06;17.42;;;11.73;;
41249;SDS011;26984;59.928;30.306;2022-08-20T03:14:01;18.35;;;12.77;;
41249;SDS011;26984;59.928;30.306;2022-08-20T03:16:29;16.75;;;13.32;;
41249;SDS011;26984;59.928;30.306;2022-08-20T03:18:58;17.63;;;11.73;;
41249;SDS011;26984;59.928;30.306;2022-08-20T03:21:26;19.60;;;10.82;;
41249;SDS011;26984;59.928;30.306;2022-08-20T03:23:54;15.35;;;9.80;;
41249;SDS011;26984;59.928;30.306;2022-08-20T03:28:49;16.48;;;10.10;;
41249;SDS011;26984;59.928;30.306;2022-08-20T03:31:17;14.30;;;11.00;;
41249;SDS011;26984;59.928;30.306;2022-08-20T03:36:14;15.95;;;10.80;;
41249;SDS011;26984;59.928;30.306;2022-08-20T03:38:41;16.25;;;11.10;;
41249;SDS011;26984;59.928;30.306;2022-08-20T03:41:09;15.10;;;10.15;;
41249;SDS011;26984;59.928;30.306;2022-08-20T03:43:37;21.05;;;11.05;;
41249;SDS011;26984;59.928;30.306;2022-08-20T03:46:07;22.50;;;10.68;;
41249;SDS011;26984;59.928;30.306;2022-08-20T03:48:39;14.23;;;10.82;;
41249;SDS011;26984;59.928;30.306;2022-08-20T03:51:09;16.42;;;10.55;;
41249;SDS011;26984;59.928;30.306;2022-08-20T03:53:38;16.95;;;10.38;;
41249;SDS011;26984;59.928;30.306;2022-08-20T03:56:06;12.60;;;9.65;;
41249;SDS011;26984;59.928;30.306;2022-08-20T03:58:34;12.52;;;9.93;;
41249;SDS011;26984;59.928;30.306;2022-08-20T04:01:03;17.90;;;10.25;;
41249;SDS011;26984;59.928;30.306;2022-08-20T04:03:32;18.83;;;10.35;;
41249;SDS011;26984;59.928;30.306;2022-08-20T04:06:00;18.52;;;10.55;;
41249;SDS011;26984;59.928;30.306;2022-08-20T04:08:28;14.10;;;10.10;;
41249;SDS011;26984;59.928;30.306;2022-08-20T04:10:58;21.98;;;11.23;;
41249;SDS011;26984;59.928;30.306;2022-08-20T04:13:27;17.40;;;10.57;;
41249;SDS011;26984;59.928;30.306;2022-08-20T04:15:56;17.65;;;11.20;;
41249;SDS011;26984;59.928;30.306;2022-08-20T04:18:26;21.45;;;13.45;;
41249;SDS011;26984;59.928;30.306;2022-08-20T04:20:54;17.13;;;13.30;;
41249;SDS011;26984;59.928;30.306;2022-08-20T04:25:50;15.77;;;12.38;;
41249;SDS011;26984;59.928;30.306;2022-08-20T04:28:23;16.90;;;12.32;;
41249;SDS011;26984;59.928;30.306;2022-08-20T04:30:53;15.48;;;12.30;;
41249;SDS011;26984;59.928;30.306;2022-08-20T04:33:23;22.25;;;11.57;;
41249;SDS011;26984;59.928;30.306;2022-08-20T04:35:52;13.70;;;10.38;;
41249;SDS011;26984;59.928;30.306;2022-08-20T04:38:21;16.83;;;9.90;;
41249;SDS011;26984;59.928;30.306;2022-08-20T04:40:49;17.17;;;10.13;;
41249;SDS011;26984;59.928;30.306;2022-08-20T04:43:20;18.48;;;9.25;;
41249;SDS011;26984;59.928;30.306;2022-08-20T04:45:49;11.55;;;8.88;;
41249;SDS011;26984;59.928;30.306;2022-08-20T04:48:18;16.77;;;9.32;;
41249;SDS011;26984;59.928;30.306;2022-08-20T04:50:49;13.93;;;8.98;;
41249;SDS011;26984;59.928;30.306;2022-08-20T04:53:19;10.35;;;8.35;;
41249;SDS011;26984;59.928;30.306;2022-08-20T04:55:49;12.10;;;9.25;;
41249;SDS011;26984;59.928;30.306;2022-08-20T04:58:21;13.55;;;12.07;;
41249;SDS011;26984;59.928;30.306;2022-08-20T05:00:53;15.48;;;11.02;;
41249;SDS011;26984;59.928;30.306;2022-08-20T05:03:22;18.27;;;10.85;;
41249;SDS011;26984;59.928;30.306;2022-08-20T05:05:51;13.68;;;10.35;;
41249;SDS011;26984;59.928;30.306;2022-08-20T05:08:20;15.80;;;9.73;;
41249;SDS011;26984;59.928;30.306;2022-08-20T05:10:50;12.88;;;8.85;;
41249;SDS011;26984;59.928;30.306;2022-08-20T05:13:21;14.52;;;8.77;;
41249;SDS011;26984;59.928;30.306;2022-08-20T05:15:48;10.63;;;8.73;;
41249;SDS011;26984;59.928;30.306;2022-08-20T05:18:17;14.85;;;9.20;;
41249;SDS011;26984;59.928;30.306;2022-08-20T05:20:45;16.67;;;9.13;;
41249;SDS011;26984;59.928;30.306;2022-08-20T05:23:14;11.32;;;8.68;;
41249;SDS011;26984;59.928;30.306;2022-08-20T05:25:45;14.88;;;8.63;;
41249;SDS011;26984;59.928;30.306;2022-08-20T05:28:19;12.90;;;8.38;;
41249;SDS011;26984;59.928;30.306;2022-08-20T05:30:51;12.70;;;8.60;;
41249;SDS011;26984;59.928;30.306;2022-08-20T05:33:20;15.50;;;9.77;;
41249;SDS011;26984;59.928;30.306;2022-08-20T05:35:50;14.85;;;9.80;;
41249;SDS011;26984;59.928;30.306;2022-08-20T05:38:20;19.30;;;9.80;;
41249;SDS011;26984;59.928;30.306;2022-08-20T05:40:50;15.15;;;8.38;;
41249;SDS011;26984;59.928;30.306;2022-08-20T05:43:18;20.52;;;8.52;;
41249;SDS011;26984;59.928;30.306;2022-08-20T05:45:49;15.73;;;8.80;;
41249;SDS011;26984;59.928;30.306;2022-08-20T05:48:18;14.60;;;8.70;;
41249;SDS011;26984;59.928;30.306;2022-08-20T05:50:50;17.25;;;9.70;;
41249;SDS011;26984;59.928;30.306;2022-08-20T05:53:20;15.90;;;9.73;;
41249;SDS011;26984;59.928;30.306;2022-08-20T05:55:50;18.20;;;10.35;;
41249;SDS011;26984;59.928;30.306;2022-08-20T05:58:21;17.38;;;10.20;;
41249;SDS011;26984;59.928;30.306;2022-08-20T06:00:52;19.05;;;9.48;;
41249;SDS011;26984;59.928;30.306;2022-08-20T06:03:21;14.75;;;9.82;;
41249;SDS011;26984;59.928;30.306;2022-08-20T06:06:10;20.02;;;10.85;;
41249;SDS011;26984;59.928;30.306;2022-08-20T06:08:38;16.10;;;10.70;;
41249;SDS011;26984;59.928;30.306;2022-08-20T06:11:06;16.42;;;10.80;;
41249;SDS011;26984;59.928;30.306;2022-08-20T06:13:34;15.32;;;9.88;;
41249;SDS011;26984;59.928;30.306;2022-08-20T06:18:31;12.02;;;10.05;;
41249;SDS011;26984;59.928;30.306;2022-08-20T06:20:59;24.83;;;10.85;;
41249;SDS011;26984;59.928;30.306;2022-08-20T06:23:27;20.00;;;10.82;;
41249;SDS011;26984;59.928;30.306;2022-08-20T06:25:55;23.27;;;10.68;;
41249;SDS011;26984;59.928;30.306;2022-08-20T06:28:26;23.85;;;11.25;;
41249;SDS011;26984;59.928;30.306;2022-08-20T06:30:55;17.50;;;11.18;;
41249;SDS011;26984;59.928;30.306;2022-08-20T06:35:52;17.27;;;11.70;;
41249;SDS011;26984;59.928;30.306;2022-08-20T06:38:20;26.38;;;12.18;;
41249;SDS011;26984;59.928;30.306;2022-08-20T06:40:48;17.80;;;11.75;;
41249;SDS011;26984;59.928;30.306;2022-08-20T06:43:15;21.30;;;12.65;;
41249;SDS011;26984;59.928;30.306;2022-08-20T06:48:12;18.55;;;13.32;;
41249;SDS011;26984;59.928;30.306;2022-08-20T06:50:44;20.00;;;12.93;;
41249;SDS011;26984;59.928;30.306;2022-08-20T06:53:13;18.77;;;12.02;;
41249;SDS011;26984;59.928;30.306;2022-08-20T06:55:43;20.45;;;14.48;;
41249;SDS011;26984;59.928;30.306;2022-08-20T06:58:13;27.90;;;15.80;;
41249;SDS011;26984;59.928;30.306;2022-08-20T07:00:41;24.27;;;14.70;;
41249;SDS011;26984;59.928;30.306;2022-08-20T07:03:10;24.08;;;13.75;;
41249;SDS011;26984;59.928;30.306;2022-08-20T07:05:41;20.52;;;13.77;;
41249;SDS011;26984;59.928;30.306;2022-08-20T07:08:12;19.02;;;12.55;;
41249;SDS011;26984;59.928;30.306;2022-08-20T07:10:43;19.17;;;12.20;;
41249;SDS011;26984;59.928;30.306;2022-08-20T07:13:11;23.58;;;12.82;;
41249;SDS011;26984;59.928;30.306;2022-08-20T07:15:41;19.85;;;12.30;;
41249;SDS011;26984;59.928;30.306;2022-08-20T07:18:09;21.30;;;12.02;;
41249;SDS011;26984;59.928;30.306;2022-08-20T07:20:38;22.58;;;11.93;;
41249;SDS011;26984;59.928;30.306;2022-08-20T07:23:08;19.58;;;12.80;;
41249;SDS011;26984;59.928;30.306;2022-08-20T07:25:37;18.67;;;11.32;;
41249;SDS011;26984;59.928;30.306;2022-08-20T07:28:07;23.38;;;11.88;;
41249;SDS011;26984;59.928;30.306;2022-08-20T07:30:39;18.40;;;11.80;;
41249;SDS011;26984;59.928;30.306;2022-08-20T07:33:24;18.67;;;12.48;;
41249;SDS011;26984;59.928;30.306;2022-08-20T07:35:53;24.88;;;13.35;;
41249;SDS011;26984;59.928;30.306;2022-08-20T07:38:23;17.60;;;11.52;;
41249;SDS011;26984;59.928;30.306;2022-08-20T07:40:53;19.38;;;11.45;;
41249;SDS011;26984;59.928;30.306;2022-08-20T07:43:22;17.73;;;11.48;;
41249;SDS011;26984;59.928;30.306;2022-08-20T07:45:50;18.70;;;11.63;;
41249;SDS011;26984;59.928;30.306;2022-08-20T07:48:20;20.38;;;11.52;;
41249;SDS011;26984;59.928;30.306;2022-08-20T07:50:50;16.23;;;10.55;;
41249;SDS011;26984;59.928;30.306;2022-08-20T07:53:18;15.68;;;9.75;;
41249;SDS011;26984;59.928;30.306;2022-08-20T07:55:47;19.15;;;10.55;;
41249;SDS011;26984;59.928;30.306;2022-08-20T07:58:16;17.25;;;11.00;;
41249;SDS011;26984;59.928;30.306;2022-08-20T08:00:46;19.95;;;10.65;;
41249;SDS011;26984;59.928;30.306;2022-08-20T08:03:14;15.35;;;10.40;;
41249;SDS011;26984;59.928;30.306;2022-08-20T08:05:43;17.38;;;10.70;;
41249;SDS011;26984;59.928;30.306;2022-08-20T08:08:14;20.17;;;11.20;;
41249;SDS011;26984;59.928;30.306;2022-08-20T08:10:48;19.73;;;10.48;;
41249;SDS011;26984;59.928;30.306;2022-08-20T08:13:27;17.17;;;10.10;;
41249;SDS011;26984;59.928;30.306;2022-08-20T08:15:58;17.13;;;9.43;;
41249;SDS011;26984;59.928;30.306;2022-08-20T08:18:27;16.48;;;8.43;;
41249;SDS011;26984;59.928;30.306;2022-08-20T08:21:00;17.50;;;8.63;;
41249;SDS011;26984;59.928;30.306;2022-08-20T08:23:27;18.77;;;8.40;;
41249;SDS011;26984;59.928;30.306;2022-08-20T08:25:56;15.95;;;8.25;;
41249;SDS011;26984;59.928;30.306;2022-08-20T08:28:24;17.63;;;7.72;;
41249;SDS011;26984;59.928;30.306;2022-08-20T08:30:54;13.68;;;7.63;;
41249;SDS011;26984;59.928;30.306;2022-08-20T08:33:23;20.70;;;8.40;;
41249;SDS011;26984;59.928;30.306;2022-08-20T08:35:56;19.70;;;7.55;;
41249;SDS011;26984;59.928;30.306;2022-08-20T08:38:26;15.13;;;8.77;;
41249;SDS011;26984;59.928;30.306;2022-08-20T08:40:55;11.50;;;8.32;;
41249;SDS011;26984;59.928;30.306;2022-08-20T08:43:28;18.80;;;8.15;;
41249;SDS011;26984;59.928;30.306;2022-08-20T08:45:58;13.27;;;7.70;;
41249;SDS011;26984;59.928;30.306;2022-08-20T08:48:32;14.63;;;7.63;;
41249;SDS011;26984;59.928;30.306;2022-08-20T08:51:03;21.42;;;7.80;;
41249;SDS011;26984;59.928;30.306;2022-08-20T08:53:38;23.52;;;8.88;;
41249;SDS011;26984;59.928;30.306;2022-08-20T08:56:09;19.73;;;8.20;;
41249;SDS011;26984;59.928;30.306;2022-08-20T08:58:39;13.55;;;7.07;;
41249;SDS011;26984;59.928;30.306;2022-08-20T09:01:09;14.05;;;7.50;;
41249;SDS011;26984;59.928;30.306;2022-08-20T09:03:39;19.30;;;7.47;;
41249;SDS011;26984;59.928;30.306;2022-08-20T09:06:11;20.15;;;7.55;;
41249;SDS011;26984;59.928;30.306;2022-08-20T09:08:42;17.40;;;7.45;;
41249;SDS011;26984;59.928;30.306;2022-08-20T09:11:15;16.80;;;6.90;;
41249;SDS011;26984;59.928;30.306;2022-08-20T09:13:44;19.33;;;6.53;;
41249;SDS011;26984;59.928;30.306;2022-08-20T09:16:12;13.18;;;6.40;;
41249;SDS011;26984;59.928;30.306;2022-08-20T09:18:41;15.60;;;6.75;;
41249;SDS011;26984;59.928;30.306;2022-08-20T09:21:08;15.02;;;6.93;;
41249;SDS011;26984;59.928;30.306;2022-08-20T09:23:36;19.20;;;7.07;;
41249;SDS011;26984;59.928;30.306;2022-08-20T09:26:04;20.60;;;7.40;;
41249;SDS011;26984;59.928;30.306;2022-08-20T09:28:33;17.38;;;6.60;;
41249;SDS011;26984;59.928;30.306;2022-08-20T09:31:02;18.38;;;6.35;;
41249;SDS011;26984;59.928;30.306;2022-08-20T09:33:30;12.55;;;5.85;;
41249;SDS011;26984;59.928;30.306;2022-08-20T09:35:58;13.90;;;6.07;;
41249;SDS011;26984;59.928;30.306;2022-08-20T09:38:26;11.93;;;5.85;;
41249;SDS011;26984;59.928;30.306;2022-08-20T09:40:54;19.45;;;6.50;;
41249;SDS011;26984;59.928;30.306;2022-08-20T09:43:22;17.25;;;6.00;;
41249;SDS011;26984;59.928;30.306;2022-08-20T09:45:51;22.40;;;6.15;;
41249;SDS011;26984;59.928;30.306;2022-08-20T09:48:18;21.77;;;6.10;;
41249;SDS011;26984;59.928;30.306;2022-08-20T09:50:49;17.02;;;5.90;;
41249;SDS011;26984;59.928;30.306;2022-08-20T09:53:17;16.63;;;5.90;;
41249;SDS011;26984;59.928;30.306;2022-08-20T09:55:47;16.70;;;5.82;;
41249;SDS011;26984;59.928;30.306;2022-08-20T09:58:19;25.77;;;6.03;;
41249;SDS011;26984;59.928;30.306;2022-08-20T10:00:52;20.23;;;6.25;;
41249;SDS011;26984;59.928;30.306;2022-08-20T10:03:20;19.15;;;5.65;;
41249;SDS011;26984;59.928;30.306;2022-08-20T10:05:48;24.90;;;5.88;;
41249;SDS011;26984;59.928;30.306;2022-08-20T10:08:16;16.10;;;5.57;;
41249;SDS011;26984;59.928;30.306;2022-08-20T10:10:44;15.23;;;5.55;;
41249;SDS011;26984;59.928;30.306;2022-08-20T10:13:12;19.17;;;6.40;;
41249;SDS011;26984;59.928;30.306;2022-08-20T10:15:42;16.20;;;6.00;;
41249;SDS011;26984;59.928;30.306;2022-08-20T10:18:25;20.98;;;6.10;;
41249;SDS011;26984;59.928;30.306;2022-08-20T10:20:55;17.42;;;5.85;;
41249;SDS011;26984;59.928;30.306;2022-08-20T10:23:35;20.20;;;5.38;;
41249;SDS011;26984;59.928;30.306;2022-08-20T10:26:05;16.73;;;5.53;;
41249;SDS011;26984;59.928;30.306;2022-08-20T10:28:34;17.35;;;6.15;;
41249;SDS011;26984;59.928;30.306;2022-08-20T10:31:04;21.77;;;6.00;;
41249;SDS011;26984;59.928;30.306;2022-08-20T10:33:37;18.75;;;5.35;;
41249;SDS011;26984;59.928;30.306;2022-08-20T10:36:11;21.17;;;6.18;;
41249;SDS011;26984;59.928;30.306;2022-08-20T10:38:41;15.85;;;6.28;;
41249;SDS011;26984;59.928;30.306;2022-08-20T10:41:10;19.15;;;6.10;;
41249;SDS011;26984;59.928;30.306;2022-08-20T10:43:47;18.85;;;5.80;;
41249;SDS011;26984;59.928;30.306;2022-08-20T10:46:18;15.70;;;5.80;;
41249;SDS011;26984;59.928;30.306;2022-08-20T10:48:49;13.93;;;5.80;;
41249;SDS011;26984;59.928;30.306;2022-08-20T10:51:18;15.43;;;5.72;;
41249;SDS011;26984;59.928;30.306;2022-08-20T10:53:48;18.70;;;5.30;;
41249;SDS011;26984;59.928;30.306;2022-08-20T10:56:30;13.73;;;5.25;;
41249;SDS011;26984;59.928;30.306;2022-08-20T10:59:00;14.30;;;5.85;;
41249;SDS011;26984;59.928;30.306;2022-08-20T11:01:30;14.80;;;6.75;;
41249;SDS011;26984;59.928;30.306;2022-08-20T11:04:00;13.40;;;6.07;;
41249;SDS011;26984;59.928;30.306;2022-08-20T11:06:28;12.70;;;5.40;;
41249;SDS011;26984;59.928;30.306;2022-08-20T11:08:56;14.32;;;5.97;;
41249;SDS011;26984;59.928;30.306;2022-08-20T11:11:24;13.57;;;5.22;;
41249;SDS011;26984;59.928;30.306;2022-08-20T11:13:51;17.50;;;5.63;;
41249;SDS011;26984;59.928;30.306;2022-08-20T11:16:19;16.73;;;5.78;;
41249;SDS011;26984;59.928;30.306;2022-08-20T11:18:47;16.35;;;6.10;;
41249;SDS011;26984;59.928;30.306;2022-08-20T11:21:19;12.32;;;5.38;;
41249;SDS011;26984;59.928;30.306;2022-08-20T11:24:12;14.60;;;6.53;;
41249;SDS011;26984;59.928;30.306;2022-08-20T11:26:49;14.00;;;5.85;;
41249;SDS011;26984;59.928;30.306;2022-08-20T11:29:40;10.88;;;5.43;;
41249;SDS011;26984;59.928;30.306;2022-08-20T11:32:32;12.55;;;5.75;;
41249;SDS011;26984;59.928;30.306;2022-08-20T11:35:18;12.98;;;5.13;;
41249;SDS011;26984;59.928;30.306;2022-08-20T11:38:26;11.77;;;5.60;;
41249;SDS011;26984;59.928;30.306;2022-08-20T11:41:33;14.90;;;5.22;;
41249;SDS011;26984;59.928;30.306;2022-08-20T11:44:09;14.27;;;5.82;;
41249;SDS011;26984;59.928;30.306;2022-08-20T11:46:36;12.38;;;5.10;;
41249;SDS011;26984;59.928;30.306;2022-08-20T11:49:04;10.63;;;5.22;;
41249;SDS011;26984;59.928;30.306;2022-08-20T11:51:32;10.95;;;5.32;;
41249;SDS011;26984;59.928;30.306;2022-08-20T11:54:03;20.95;;;6.25;;
41249;SDS011;26984;59.928;30.306;2022-08-20T11:56:32;10.65;;;5.75;;
41249;SDS011;26984;59.928;30.306;2022-08-20T11:58:59;11.27;;;5.30;;
41249;SDS011;26984;59.928;30.306;2022-08-20T12:01:27;11.52;;;5.45;;
41249;SDS011;26984;59.928;30.306;2022-08-20T12:03:58;11.65;;;5.32;;
41249;SDS011;26984;59.928;30.306;2022-08-20T12:06:26;8.27;;;5.20;;
41249;SDS011;26984;59.928;30.306;2022-08-20T12:08:54;10.77;;;5.10;;
41249;SDS011;26984;59.928;30.306;2022-08-20T12:11:23;12.32;;;5.43;;
41249;SDS011;26984;59.928;30.306;2022-08-20T12:13:50;12.38;;;5.25;;
41249;SDS011;26984;59.928;30.306;2022-08-20T12:16:18;12.70;;;5.35;;
41249;SDS011;26984;59.928;30.306;2022-08-20T12:18:46;13.05;;;5.93;;
41249;SDS011;26984;59.928;30.306;2022-08-20T12:21:14;11.27;;;6.00;;
41249;SDS011;26984;59.928;30.306;2022-08-20T12:23:44;8.95;;;4.95;;
41249;SDS011;26984;59.928;30.306;2022-08-20T12:26:12;10.48;;;5.00;;
41249;SDS011;26984;59.928;30.306;2022-08-20T12:28:43;10.73;;;5.65;;
41249;SDS011;26984;59.928;30.306;2022-08-20T12:31:10;9.02;;;5.63;;
41249;SDS011;26984;59.928;30.306;2022-08-20T12:33:38;15.45;;;5.80;;
41249;SDS011;26984;59.928;30.306;2022-08-20T12:36:06;9.23;;;5.65;;
41249;SDS011;26984;59.928;30.306;2022-08-20T12:38:40;12.80;;;5.53;;
41249;SDS011;26984;59.928;30.306;2022-08-20T12:41:08;8.60;;;5.28;;
41249;SDS011;26984;59.928;30.306;2022-08-20T12:43:44;14.75;;;6.55;;
41249;SDS011;26984;59.928;30.306;2022-08-20T12:46:12;12.80;;;5.90;;
41249;SDS011;26984;59.928;30.306;2022-08-20T12:48:40;13.63;;;5.65;;
41249;SDS011;26984;59.928;30.306;2022-08-20T12:51:08;15.48;;;6.28;;
41249;SDS011;26984;59.928;30.306;2022-08-20T12:53:36;7.65;;;5.65;;
41249;SDS011;26984;59.928;30.306;2022-08-20T12:56:04;10.15;;;5.78;;
41249;SDS011;26984;59.928;30.306;2022-08-20T12:58:32;16.67;;;6.40;;
41249;SDS011;26984;59.928;30.306;2022-08-20T13:01:01;14.35;;;6.43;;
41249;SDS011;26984;59.928;30.306;2022-08-20T13:03:29;11.63;;;6.43;;
41249;SDS011;26984;59.928;30.306;2022-08-20T13:05:59;12.40;;;6.55;;
41249;SDS011;26984;59.928;30.306;2022-08-20T13:08:27;10.48;;;6.65;;
41249;SDS011;26984;59.928;30.306;2022-08-20T13:10:55;17.67;;;6.30;;
41249;SDS011;26984;59.928;30.306;2022-08-20T13:13:23;13.60;;;7.00;;
41249;SDS011;26984;59.928;30.306;2022-08-20T13:15:52;15.90;;;7.65;;
41249;SDS011;26984;59.928;30.306;2022-08-20T13:18:29;11.40;;;6.88;;
41249;SDS011;26984;59.928;30.306;2022-08-20T13:20:57;14.82;;;7.65;;
41249;SDS011;26984;59.928;30.306;2022-08-20T13:23:26;12.50;;;7.10;;
41249;SDS011;26984;59.928;30.306;2022-08-20T13:25:57;8.40;;;7.10;;
41249;SDS011;26984;59.928;30.306;2022-08-20T13:28:27;12.55;;;7.25;;
41249;SDS011;26984;59.928;30.306;2022-08-20T13:30:58;12.60;;;7.70;;
41249;SDS011;26984;59.928;30.306;2022-08-20T13:33:27;12.23;;;8.95;;
41249;SDS011;26984;59.928;30.306;2022-08-20T13:35:56;14.65;;;7.68;;
41249;SDS011;26984;59.928;30.306;2022-08-20T13:38:24;11.95;;;7.65;;
41249;SDS011;26984;59.928;30.306;2022-08-20T13:40:53;10.65;;;7.35;;
41249;SDS011;26984;59.928;30.306;2022-08-20T13:43:26;8.13;;;6.82;;
41249;SDS011;26984;59.928;30.306;2022-08-20T13:45:57;16.30;;;7.57;;
41249;SDS011;26984;59.928;30.306;2022-08-20T13:48:28;11.55;;;6.82;;
41249;SDS011;26984;59.928;30.306;2022-08-20T13:50:56;8.70;;;6.53;;
41249;SDS011;26984;59.928;30.306;2022-08-20T13:53:24;13.85;;;7.30;;
41249;SDS011;26984;59.928;30.306;2022-08-20T13:55:51;16.83;;;7.10;;
41249;SDS011;26984;59.928;30.306;2022-08-20T13:58:19;9.60;;;7.07;;
41249;SDS011;26984;59.928;30.306;2022-08-20T14:00:47;10.15;;;6.07;;
41249;SDS011;26984;59.928;30.306;2022-08-20T14:03:16;15.23;;;6.18;;
41249;SDS011;26984;59.928;30.306;2022-08-20T14:06:00;16.75;;;6.53;;
41249;SDS011;26984;59.928;30.306;2022-08-20T14:08:34;17.52;;;6.85;;
41249;SDS011;26984;59.928;30.306;2022-08-20T14:14:04;12.98;;;7.03;;
41249;SDS011;26984;59.928;30.306;2022-08-20T14:16:32;17.50;;;7.28;;
41249;SDS011;26984;59.928;30.306;2022-08-20T14:19:02;15.13;;;6.93;;
41249;SDS011;26984;59.928;30.306;2022-08-20T14:21:31;12.32;;;6.57;;
41249;SDS011;26984;59.928;30.306;2022-08-20T14:24:00;17.50;;;6.80;;
41249;SDS011;26984;59.928;30.306;2022-08-20T14:26:34;8.85;;;6.90;;
41249;SDS011;26984;59.928;30.306;2022-08-20T14:29:03;14.18;;;6.32;;
41249;SDS011;26984;59.928;30.306;2022-08-20T14:31:31;8.60;;;5.70;;
41249;SDS011;26984;59.928;30.306;2022-08-20T14:33:59;13.93;;;6.38;;
41249;SDS011;26984;59.928;30.306;2022-08-20T14:36:27;12.40;;;5.95;;
41249;SDS011;26984;59.928;30.306;2022-08-20T14:38:56;11.20;;;5.88;;
41249;SDS011;26984;59.928;30.306;2022-08-20T14:41:24;16.45;;;6.68;;
41249;SDS011;26984;59.928;30.306;2022-08-20T14:43:52;11.55;;;6.63;;
41249;SDS011;26984;59.928;30.306;2022-08-20T14:46:20;10.32;;;5.95;;
41249;SDS011;26984;59.928;30.306;2022-08-20T14:48:47;10.75;;;5.85;;
41249;SDS011;26984;59.928;30.306;2022-08-20T14:51:15;11.23;;;5.57;;
41249;SDS011;26984;59.928;30.306;2022-08-20T14:53:43;13.77;;;5.97;;
41249;SDS011;26984;59.928;30.306;2022-08-20T14:56:12;13.57;;;5.95;;
41249;SDS011;26984;59.928;30.306;2022-08-20T14:58:40;10.00;;;5.60;;
41249;SDS011;26984;59.928;30.306;2022-08-20T15:01:08;8.05;;;5.28;;
41249;SDS011;26984;59.928;30.306;2022-08-20T15:03:36;15.20;;;6.63;;
41249;SDS011;26984;59.928;30.306;2022-08-20T15:06:04;9.13;;;5.88;;